Tipton Airport
KFME : now visible

Airfield :











YOU CAN JOIN US ON...

 
LOGIN :

Register | Disclaimer

   EN    FR    IT 

 









Legend :    VFR   Marginal VFR   IFR   Intensive IFR   Very Intensive IFR
Visi :
Ceiling :
>= 8 km
>= 3000ft
5 to 8 km
1000 to 3000 ft
1500m to 5 km
500 to 1000 ft
800 to 1500m
200 to 500 ft
< 800m
< 200 ft
Symbols :   Thunderstorms  Fog  Heavy snow  Heavy precipitations  Wind > 20 kt






- Airport Elevation : 150 ft


KFME - Tipton

CURRENT METAR :
  • 262135Z AUTO 35003KT 1SM OVC004 01/01 A2988 RMK AO1

EXPIRED METARs :
  • 262115Z AUTO 00000KT 1 1/4SM OVC004 01/01 A2988 RMK AO1
  • 262055Z AUTO 00000KT 1 3/4SM OVC004 01/01 A2986 RMK AO1
  • 262035Z AUTO 00000KT 1 1/4SM OVC004 01/00 A2985 RMK AO1
  • 262015Z AUTO 00000KT 1 3/4SM OVC004 01/00 A2985 RMK AO1
  • 261955Z AUTO 00000KT 1 1/2SM OVC004 00/00 A2985 RMK AO1
  • 261935Z AUTO 00000KT 1SM OVC004 00/00 A2984 RMK AO1
  • 261915Z AUTO 00000KT 1 1/4SM OVC004 00/00 A2986 RMK AO1
  • 261855Z AUTO 00000KT 1 1/4SM OVC004 00/00 A2985 RMK AO1

TAF N/A
KZDC FIR / North America



MET'MAP, your aeronautical weather chart ! - Copyright ORBIFLY December 2007 - Disclaimer

ORBIFLY MET'MAP TEAM :

Programming & Development : Alexandra Zaïnal
Concept & original design : Baudouin d'Aumeries
Assistance for programming : Marc-Olivier Méhu
Technical & hardware support : Manuel Goepfert

Contact : metmap@orbifly.com




SOURCES & CREDITS :

   NOAA       Earth
Advisory